createdAt,value
2019-06-07T00:00:48.419Z,28.60
2019-06-07T00:03:27.605Z,30.77
2019-06-07T00:05:45.556Z,29.93
2019-06-07T00:08:22.504Z,25.67
2019-06-07T00:10:42.826Z,25.73
2019-06-07T00:13:12.888Z,23.37
2019-06-07T00:15:40.011Z,28.27
2019-06-07T00:18:11.136Z,27.97
2019-06-07T00:20:37.186Z,22.87
2019-06-07T00:23:05.766Z,21.97
2019-06-07T00:25:34.300Z,29.93
2019-06-07T00:28:02.846Z,27.27
2019-06-07T00:30:50.160Z,27.17
2019-06-07T00:33:00.407Z,24.73
2019-06-07T00:35:29.039Z,28.57
2019-06-07T00:37:57.754Z,24.90
2019-06-07T00:40:31.819Z,33.47
2019-06-07T00:42:55.127Z,32.20
2019-06-07T00:45:24.793Z,30.17
2019-06-07T00:47:52.242Z,26.23
2019-06-07T00:50:24.140Z,34.43
2019-06-07T00:55:20.631Z,23.43
2019-06-07T00:57:47.247Z,31.13
2019-06-07T01:00:18.347Z,26.90
2019-06-07T01:02:44.925Z,29.77
2019-06-07T01:05:15.945Z,28.70
2019-06-07T01:07:42.162Z,27.63
2019-06-07T01:10:13.670Z,27.57
2019-06-07T01:12:40.559Z,31.70
2019-06-07T01:15:09.171Z,26.17
2019-06-07T01:17:50.135Z,30.57
2019-06-07T01:20:06.752Z,26.03
2019-06-07T01:22:35.374Z,25.97
2019-06-07T01:25:04.011Z,25.10
2019-06-07T01:27:32.575Z,23.70
2019-06-07T01:30:01.385Z,24.23
2019-06-07T01:32:31.833Z,24.83
2019-06-07T01:34:58.957Z,24.90
2019-06-07T01:37:28.460Z,28.73
2019-06-07T01:39:56.152Z,26.80
2019-06-07T01:42:28.858Z,28.10
2019-06-07T01:44:53.292Z,21.73
2019-06-07T01:47:25.540Z,30.40
2019-06-07T01:49:50.363Z,26.80
2019-06-07T01:52:19.546Z,24.77
2019-06-07T01:54:58.050Z,22.27
2019-06-07T01:57:36.592Z,21.33
2019-06-07T01:59:44.662Z,28.63
2019-06-07T02:02:13.195Z,32.40
2019-06-07T02:04:41.925Z,24.57
2019-06-07T02:07:10.790Z,25.30
2019-06-07T02:09:39.337Z,28.87
2019-06-07T02:12:25.092Z,21.83
2019-06-07T02:14:36.475Z,23.43
2019-06-07T02:17:05.222Z,26.97
2019-06-07T02:19:33.824Z,22.17
2019-06-07T02:22:02.500Z,23.10
2019-06-07T02:24:34.616Z,21.70
2019-06-07T02:26:59.586Z,19.80
2019-06-07T02:29:31.417Z,25.17
2019-06-07T02:31:56.866Z,19.90
2019-06-07T02:34:28.122Z,24.77
2019-06-07T02:36:54.089Z,25.97
2019-06-07T02:39:23.982Z,18.90
2019-06-07T02:41:51.222Z,21.13
2019-06-07T02:44:19.774Z,18.23
2019-06-07T02:46:49.972Z,21.87
2019-06-07T02:49:17.107Z,18.63
2019-06-07T02:51:45.683Z,15.87
2019-06-07T02:54:14.519Z,18.93
2019-06-07T02:56:56.789Z,16.67
2019-06-07T02:59:11.920Z,23.03
2019-06-07T03:01:42.559Z,17.13
2019-06-07T03:04:09.267Z,17.37
2019-06-07T03:06:43.249Z,17.17
2019-06-07T03:09:08.608Z,16.90
2019-06-07T03:11:38.940Z,16.53
2019-06-07T03:14:05.926Z,18.47
2019-06-07T03:16:39.154Z,17.03
2019-06-07T03:19:11.009Z,20.47
2019-06-07T03:21:42.380Z,17.87
2019-06-07T03:24:10.945Z,16.93
2019-06-07T03:27:31.420Z,23.47
2019-06-07T03:29:08.436Z,18.10
2019-06-07T03:31:41.713Z,17.30
2019-06-07T03:34:05.627Z,17.30
2019-06-07T03:36:35.466Z,27.93
2019-06-07T03:39:03.179Z,17.77
2019-06-07T03:41:38.629Z,13.63
2019-06-07T03:44:00.550Z,15.63
2019-06-07T03:46:30.118Z,16.80
2019-06-07T03:48:57.663Z,15.57
2019-06-07T03:51:27.386Z,16.17
2019-06-07T03:53:54.890Z,21.03
2019-06-07T03:56:23.415Z,18.10
2019-06-07T03:58:51.974Z,18.70
2019-06-07T04:01:20.707Z,16.50
2019-06-07T04:03:51.793Z,14.27
2019-06-07T04:06:17.884Z,15.77
2019-06-07T04:08:46.467Z,13.23
2019-06-07T04:11:15.194Z,15.87
2019-06-07T04:13:43.857Z,12.87
2019-06-07T04:16:12.515Z,16.43
2019-06-07T04:18:42.508Z,13.07
2019-06-07T04:21:09.782Z,17.60
2019-06-07T04:23:44.925Z,17.43
2019-06-07T04:26:07.183Z,19.03
2019-06-07T04:29:30.229Z,14.77
2019-06-07T04:31:04.374Z,13.70
2019-06-07T04:33:37.066Z,14.80
2019-06-07T04:36:01.726Z,14.43
2019-06-07T04:38:32.689Z,15.80
2019-06-07T04:40:59.378Z,12.33
2019-06-07T04:43:31.037Z,18.37
2019-06-07T04:45:56.650Z,16.87
2019-06-07T04:48:25.270Z,16.53
2019-06-07T04:50:53.891Z,18.27
2019-06-07T04:53:22.426Z,18.43
2019-06-07T04:55:50.975Z,17.97
2019-06-07T04:58:19.563Z,15.87
2019-06-07T05:00:54.129Z,14.83
2019-06-07T05:03:16.833Z,15.23
2019-06-07T05:05:45.358Z,11.50
2019-06-07T05:08:27.580Z,15.27
2019-06-07T05:10:43.887Z,13.80
2019-06-07T05:13:11.291Z,18.97
2019-06-07T05:15:42.040Z,12.17
2019-06-07T05:18:08.427Z,14.63
2019-06-07T05:20:38.546Z,11.83
2019-06-07T05:23:05.603Z,17.67
2019-06-07T05:25:36.468Z,12.70
2019-06-07T05:28:03.108Z,14.80
2019-06-07T05:31:01.929Z,14.90
2019-06-07T05:33:02.412Z,17.13
2019-06-07T05:35:31.223Z,16.53
2019-06-07T05:37:59.834Z,10.87
2019-06-07T05:40:34.933Z,14.17
2019-06-07T05:43:02.971Z,18.63
2019-06-07T05:45:37.643Z,14.10
2019-06-07T05:48:02.683Z,14.23
2019-06-07T05:50:42.619Z,11.57
2019-06-07T05:52:59.195Z,19.80
2019-06-07T05:55:27.933Z,17.90
2019-06-07T05:57:56.508Z,15.00
2019-06-07T06:00:25.223Z,9.57
2019-06-07T06:03:04.825Z,11.70
2019-06-07T06:05:33.689Z,14.93
2019-06-07T06:07:51.135Z,16.80
2019-06-07T06:10:19.618Z,13.17
2019-06-07T06:12:51.724Z,19.57
2019-06-07T06:15:16.850Z,15.37
2019-06-07T06:17:48.939Z,12.90
2019-06-07T06:20:14.247Z,8.80
2019-06-07T06:22:44.807Z,12.10
2019-06-07T06:30:09.478Z,16.40
2019-06-07T06:32:49.294Z,16.83
2019-06-07T06:35:07.055Z,11.63
2019-06-07T06:37:38.038Z,16.03
2019-06-07T06:40:05.510Z,13.67
2019-06-07T06:42:34.691Z,9.40
2019-06-07T06:45:12.631Z,7.60
2019-06-07T06:47:43.143Z,14.03
2019-06-07T06:50:09.838Z,13.27
2019-06-07T06:52:42.327Z,14.57
2019-06-07T06:55:07.184Z,13.17
2019-06-07T06:57:35.726Z,18.13
2019-06-07T07:00:05.299Z,12.47
2019-06-07T07:02:33.841Z,13.77
2019-06-07T07:05:02.475Z,14.77
2019-06-07T07:07:31.121Z,10.07
2019-06-07T07:10:03.155Z,15.03
2019-06-07T07:12:31.422Z,9.17
2019-06-07T07:15:00.073Z,11.60
2019-06-07T07:17:47.630Z,7.60
2019-06-07T07:19:57.209Z,8.03
2019-06-07T07:22:25.730Z,12.97
2019-06-07T07:24:54.949Z,12.73
2019-06-07T07:27:23.127Z,9.47
2019-06-07T07:30:10.187Z,8.50
2019-06-07T07:32:20.357Z,9.40
2019-06-07T07:34:51.785Z,8.87
2019-06-07T07:37:17.589Z,15.90
2019-06-07T07:39:48.597Z,8.97
2019-06-07T07:42:21.124Z,7.73
2019-06-07T07:44:45.024Z,12.83
2019-06-07T07:47:12.441Z,7.03
2019-06-07T07:49:41.041Z,9.90
2019-06-07T07:52:09.603Z,14.63
2019-06-07T07:54:38.172Z,9.47
2019-06-07T07:57:06.743Z,9.20
2019-06-07T07:59:42.233Z,10.20
2019-06-07T08:02:04.055Z,12.57
2019-06-07T08:05:12.750Z,9.85
2019-06-07T08:07:01.600Z,12.10
2019-06-07T08:09:30.204Z,9.78
2019-06-07T08:12:01.934Z,8.60
2019-06-07T08:14:27.283Z,8.83
2019-06-07T08:16:57.892Z,7.35
2019-06-07T08:19:24.374Z,10.07
2019-06-07T08:21:53.104Z,11.83
2019-06-07T08:24:21.493Z,7.67
2019-06-07T08:27:10.487Z,4.62
2019-06-07T08:29:18.763Z,6.20
2019-06-07T08:31:48.298Z,5.83
2019-06-07T08:34:15.914Z,6.10
2019-06-07T08:36:44.429Z,5.40
2019-06-07T08:39:13.111Z,7.95
2019-06-07T08:41:53.814Z,5.53
2019-06-07T08:44:23.379Z,4.07
2019-06-07T08:46:39.272Z,4.60
2019-06-07T08:49:07.943Z,8.43
2019-06-07T08:51:36.475Z,6.90
2019-06-07T08:54:21.489Z,5.10
2019-06-07T08:56:33.630Z,15.68
2019-06-07T08:59:10.731Z,5.35
2019-06-07T09:01:30.758Z,9.15
2019-06-07T09:04:02.615Z,7.47
2019-06-07T09:07:01.767Z,12.63
2019-06-07T09:09:00.276Z,9.88
2019-06-07T09:11:25.127Z,5.50
2019-06-07T09:13:54.481Z,4.95
2019-06-07T09:16:22.365Z,6.80
2019-06-07T09:18:50.947Z,5.72
2019-06-07T09:21:19.880Z,7.12
2019-06-07T09:23:48.430Z,5.65
2019-06-07T09:26:18.956Z,7.03
2019-06-07T09:28:45.667Z,6.83
2019-06-07T09:31:14.237Z,10.45
2019-06-07T09:33:42.792Z,5.25
2019-06-07T09:36:13.178Z,11.38
2019-06-07T09:38:39.973Z,20.17
2019-06-07T09:41:09.788Z,7.03
2019-06-07T09:46:12.940Z,5.60
2019-06-07T09:49:09.948Z,5.33
2019-06-07T09:51:09.689Z,6.55
2019-06-07T09:53:32.007Z,14.35
2019-06-07T09:56:03.573Z,5.33
2019-06-07T10:01:02.073Z,9.23
2019-06-07T10:03:26.539Z,9.33
2019-06-07T10:05:55.049Z,10.00
2019-06-07T10:09:42.295Z,5.83
2019-06-07T10:10:52.163Z,7.27
2019-06-07T10:13:20.710Z,7.65
2019-06-07T10:15:49.452Z,6.25
2019-06-07T10:18:18.015Z,5.05
2019-06-07T10:20:46.571Z,7.12
2019-06-07T10:23:15.182Z,7.12
2019-06-07T10:25:43.880Z,10.95
2019-06-07T10:28:12.280Z,9.40
2019-06-07T10:30:40.854Z,11.97
2019-06-07T10:33:10.472Z,8.65
2019-06-07T10:35:38.309Z,6.92
2019-06-07T10:38:06.940Z,6.67
2019-06-07T10:40:35.646Z,6.60
2019-06-07T10:43:05.053Z,6.87
2019-06-07T10:45:33.376Z,9.53
2019-06-07T10:48:03.450Z,19.98
2019-06-07T10:50:31.008Z,7.43
2019-06-07T10:52:59.544Z,10.95
2019-06-07T10:55:28.094Z,15.57
2019-06-07T10:57:56.629Z,14.53
2019-06-07T11:00:25.522Z,11.00
2019-06-07T11:02:55.197Z,14.75
2019-06-07T11:05:22.659Z,11.22
2019-06-07T11:07:51.668Z,12.43
2019-06-07T11:10:20.452Z,11.63
2019-06-07T11:12:48.719Z,7.07
2019-06-07T11:15:17.308Z,9.23
2019-06-07T11:17:45.827Z,11.63
2019-06-07T11:20:14.534Z,17.23
2019-06-07T11:22:43.027Z,11.40
2019-06-07T11:25:12.841Z,21.73
2019-06-07T11:27:40.287Z,18.20
2019-06-07T11:30:10.342Z,11.07
2019-06-07T11:32:37.485Z,12.20
2019-06-07T11:35:06.398Z,15.97
2019-06-07T11:37:34.783Z,11.87
2019-06-07T11:40:03.575Z,16.47
2019-06-07T11:42:32.255Z,11.07
2019-06-07T11:45:00.970Z,9.37
2019-06-07T11:47:35.527Z,14.00
2019-06-07T11:50:04.722Z,13.83
2019-06-07T11:52:33.462Z,8.13
2019-06-07T11:55:02.003Z,11.17
2019-06-07T11:57:30.531Z,14.57
2019-06-07T11:59:59.066Z,14.07
2019-06-07T12:02:27.603Z,10.50
2019-06-07T12:04:56.138Z,10.72
2019-06-07T12:07:24.664Z,9.77
2019-06-07T12:09:56.696Z,9.93
2019-06-07T12:12:21.782Z,19.43
2019-06-07T12:14:50.374Z,13.97
2019-06-07T12:17:19.592Z,12.75
2019-06-07T12:19:47.763Z,13.93
2019-06-07T12:22:16.347Z,10.23
2019-06-07T12:24:44.864Z,9.93
2019-06-07T12:27:14.600Z,14.10
2019-06-07T12:29:41.994Z,10.83
2019-06-07T12:32:11.212Z,14.85
2019-06-07T12:34:39.264Z,9.03
2019-06-07T12:37:07.862Z,12.47
2019-06-07T12:39:36.406Z,10.47
2019-06-07T12:42:05.017Z,12.80
2019-06-07T12:44:33.583Z,10.18
2019-06-07T12:47:02.127Z,10.73
2019-06-07T12:49:30.709Z,6.80
2019-06-07T12:51:59.214Z,10.60
2019-06-07T12:54:27.973Z,14.90
2019-06-07T12:56:56.499Z,13.72
2019-06-07T12:59:25.066Z,21.00
2019-06-07T13:01:53.578Z,9.80
2019-06-07T13:04:22.647Z,17.00
2019-06-07T13:06:51.153Z,10.07
2019-06-07T13:09:19.946Z,10.87
2019-06-07T13:11:48.302Z,15.40
2019-06-07T13:14:17.780Z,23.90
2019-06-07T13:16:45.402Z,15.03
2019-06-07T13:19:13.937Z,12.93
2019-06-07T13:21:42.473Z,10.17
2019-06-07T13:24:11.110Z,17.20
2019-06-07T13:26:39.834Z,16.62
2019-06-07T13:29:08.518Z,19.23
2019-06-07T13:31:37.063Z,10.93
2019-06-07T13:34:05.586Z,12.10
2019-06-07T13:36:34.255Z,14.77
2019-06-07T13:39:02.839Z,10.73
2019-06-07T13:41:41.810Z,12.67
2019-06-07T13:43:59.923Z,11.07
2019-06-07T13:46:28.455Z,15.53
2019-06-07T13:48:57.068Z,8.93
2019-06-07T13:51:26.945Z,11.93
2019-06-07T13:53:54.180Z,14.17
2019-06-07T13:56:23.958Z,16.30
2019-06-07T13:58:51.931Z,14.87
2019-06-07T14:01:20.492Z,20.57
2019-06-07T14:03:49.005Z,10.87
2019-06-07T14:06:18.820Z,14.23
2019-06-07T14:08:46.215Z,10.70
2019-06-07T14:11:14.934Z,13.77
2019-06-07T14:13:43.464Z,14.83
2019-06-07T14:16:12.035Z,13.77
2019-06-07T14:18:40.627Z,13.00
2019-06-07T14:21:09.338Z,12.67
2019-06-07T14:23:47.996Z,17.53
2019-06-07T14:26:06.486Z,14.43
2019-06-07T14:28:35.091Z,15.33
2019-06-07T14:31:03.643Z,16.57
2019-06-07T14:33:33.690Z,12.23
2019-06-07T14:36:00.927Z,10.73
2019-06-07T14:38:33.363Z,16.77
2019-06-07T14:40:58.238Z,10.93
2019-06-07T14:43:27.609Z,10.40
2019-06-07T14:45:55.506Z,16.70
2019-06-07T14:48:24.011Z,13.43
2019-06-07T14:50:52.539Z,8.60
2019-06-07T14:53:21.308Z,9.53
2019-06-07T14:55:49.840Z,11.10
2019-06-07T14:58:18.951Z,15.43
2019-06-07T15:00:47.700Z,20.37
2019-06-07T15:03:16.264Z,11.90
2019-06-07T15:05:44.811Z,12.67
2019-06-07T15:08:13.495Z,10.77
2019-06-07T15:10:42.063Z,14.17
2019-06-07T15:13:10.624Z,12.03
2019-06-07T15:15:39.228Z,14.57
2019-06-07T15:18:07.778Z,9.37
2019-06-07T15:20:36.459Z,13.27
2019-06-07T15:23:04.869Z,10.80
2019-06-07T15:25:33.630Z,13.57
2019-06-07T15:28:02.138Z,10.37
2019-06-07T15:30:31.620Z,10.57
2019-06-07T15:32:59.952Z,11.03
2019-06-07T15:35:28.115Z,8.73
2019-06-07T15:37:56.369Z,16.30
2019-06-07T15:40:25.126Z,13.47
2019-06-07T15:42:53.634Z,8.50
2019-06-07T15:45:22.505Z,12.10
2019-06-07T15:47:51.059Z,17.10
2019-06-07T15:50:19.687Z,12.57
2019-06-07T15:52:48.241Z,17.00
2019-06-07T15:55:16.882Z,13.37
2019-06-07T15:57:45.390Z,12.33
2019-06-07T16:00:14.264Z,15.03
2019-06-07T16:02:42.835Z,13.60
2019-06-07T16:05:11.474Z,12.90
2019-06-07T16:07:40.467Z,20.90
2019-06-07T16:10:08.775Z,17.57
2019-06-07T16:12:38.676Z,18.00
2019-06-07T16:15:07.064Z,19.87
2019-06-07T16:17:37.175Z,14.00
2019-06-07T16:20:05.256Z,17.23
2019-06-07T16:22:33.790Z,13.00
2019-06-07T16:25:02.392Z,11.67
2019-06-07T16:27:30.967Z,15.40
2019-06-07T16:29:59.502Z,12.80
2019-06-07T16:32:28.042Z,13.40
2019-06-07T16:34:56.603Z,13.93
2019-06-07T16:37:25.145Z,15.27
2019-06-07T16:39:53.929Z,13.70
2019-06-07T16:42:22.486Z,12.33
2019-06-07T16:44:51.266Z,13.93
2019-06-07T16:47:19.955Z,17.87
2019-06-07T16:49:49.228Z,13.73
2019-06-07T16:52:17.202Z,10.80
2019-06-07T16:54:45.925Z,15.43
2019-06-07T16:57:14.415Z,12.07
2019-06-07T16:59:46.770Z,13.20
2019-06-07T17:02:11.719Z,14.17
2019-06-07T17:04:41.501Z,14.07
2019-06-07T17:07:08.824Z,20.70
2019-06-07T17:09:38.157Z,13.43
2019-06-07T17:12:05.925Z,16.53
2019-06-07T17:14:34.475Z,16.50
2019-06-07T17:17:02.999Z,11.53
2019-06-07T17:19:31.515Z,15.57
2019-06-07T17:22:00.045Z,15.53
2019-06-07T17:24:28.740Z,21.83
2019-06-07T17:26:57.277Z,19.43
2019-06-07T17:29:25.792Z,29.47
2019-06-07T17:31:54.299Z,29.03
2019-06-07T17:34:22.857Z,14.60
2019-06-07T17:36:51.363Z,21.10
2019-06-07T17:39:19.890Z,15.17
2019-06-07T17:42:00.027Z,20.90
2019-06-07T17:44:17.152Z,15.67
2019-06-07T17:46:45.669Z,17.60
2019-06-07T17:49:14.185Z,15.17
2019-06-07T17:51:44.115Z,19.67
2019-06-07T17:54:11.442Z,17.40
2019-06-07T17:56:39.976Z,16.23
2019-06-07T17:59:08.505Z,13.87
2019-06-07T18:01:41.600Z,19.83
2019-06-07T18:04:06.488Z,15.07
2019-06-07T18:06:35.431Z,15.20
2019-06-07T18:09:04.716Z,12.33
2019-06-07T18:11:33.315Z,14.57
2019-06-07T18:14:10.008Z,14.03
2019-06-07T18:16:30.514Z,14.20
2019-06-07T18:18:59.167Z,25.13
2019-06-07T18:21:27.681Z,17.60
2019-06-07T18:23:56.265Z,13.67
2019-06-07T18:26:24.820Z,14.00
2019-06-07T18:28:54.610Z,14.80
2019-06-07T18:31:21.930Z,14.03
2019-06-07T18:33:50.945Z,13.53
2019-06-07T18:36:19.138Z,18.80
2019-06-07T18:38:48.956Z,12.37
2019-06-07T18:41:16.463Z,20.27
2019-06-07T18:43:44.979Z,23.83
2019-06-07T18:46:13.527Z,21.57
2019-06-07T18:48:42.045Z,15.87
2019-06-07T18:51:22.573Z,15.93
2019-06-07T18:53:51.650Z,16.67
2019-06-07T18:56:19.827Z,12.43
2019-06-07T18:58:49.121Z,13.67
2019-06-07T19:01:23.203Z,17.67
2019-06-07T19:03:52.094Z,36.77
2019-06-07T19:06:20.983Z,18.83
2019-06-07T19:08:53.120Z,17.50
2019-06-07T19:11:18.115Z,16.40
2019-06-07T19:13:46.847Z,14.13
2019-06-07T19:16:15.560Z,29.30
2019-06-07T19:18:44.091Z,17.13
2019-06-07T19:21:12.899Z,20.07
2019-06-07T19:23:41.637Z,19.83
2019-06-07T19:26:10.172Z,21.60
2019-06-07T19:28:38.683Z,15.60
2019-06-07T19:31:07.211Z,20.43
2019-06-07T19:33:48.463Z,20.30
2019-06-07T19:36:04.716Z,19.77
2019-06-07T19:38:33.390Z,22.33
2019-06-07T19:41:17.609Z,19.13
2019-06-07T19:43:30.643Z,16.53
2019-06-07T19:46:00.296Z,20.53
2019-06-07T19:48:27.753Z,16.67
2019-06-07T19:50:56.849Z,19.43
2019-06-07T19:53:24.995Z,20.10
2019-06-07T19:55:53.506Z,19.97
2019-06-07T19:58:22.293Z,20.80
2019-06-07T20:00:50.943Z,21.77
2019-06-07T20:03:19.479Z,24.63
2019-06-07T20:05:48.015Z,18.40
2019-06-07T20:08:17.251Z,17.43
2019-06-07T20:10:45.802Z,24.83
2019-06-07T20:13:14.371Z,23.30
2019-06-07T20:15:42.918Z,21.23
2019-06-07T20:18:11.776Z,26.63
2019-06-07T20:20:40.310Z,23.70
2019-06-07T20:23:09.341Z,25.37
2019-06-07T20:25:37.530Z,18.47
2019-06-07T20:28:06.111Z,23.30
2019-06-07T20:30:34.892Z,29.20
2019-06-07T20:33:03.955Z,28.00
2019-06-07T20:35:32.114Z,22.77
2019-06-07T20:38:01.148Z,20.83
2019-06-07T20:40:29.615Z,23.40
2019-06-07T20:42:59.349Z,20.77
2019-06-07T20:45:33.481Z,26.90
2019-06-07T20:47:55.583Z,30.73
2019-06-07T20:50:24.125Z,19.83
2019-06-07T20:52:52.675Z,24.57
2019-06-07T20:55:21.225Z,26.47
2019-06-07T20:57:49.794Z,20.13
2019-06-07T21:00:22.169Z,24.23
2019-06-07T21:02:47.123Z,24.50
2019-06-07T21:05:15.882Z,30.13
2019-06-07T21:07:44.394Z,28.63
2019-06-07T21:10:13.824Z,20.87
2019-06-07T21:12:42.569Z,23.57
2019-06-07T21:15:14.296Z,24.07
2019-06-07T21:17:40.284Z,21.03
2019-06-07T21:20:13.550Z,21.57
2019-06-07T21:22:37.104Z,19.93
2019-06-07T21:25:07.239Z,20.37
2019-06-07T21:27:34.615Z,26.33
2019-06-07T21:30:03.491Z,20.47
2019-06-07T21:32:31.861Z,17.33
2019-06-07T21:35:01.778Z,13.13
2019-06-07T21:37:29.080Z,19.87
2019-06-07T21:39:57.586Z,15.13
2019-06-07T21:42:26.094Z,18.77
2019-06-07T21:44:54.600Z,14.00
2019-06-07T21:47:23.131Z,17.80
2019-06-07T21:49:51.661Z,17.47
2019-06-07T21:52:20.266Z,16.67
2019-06-07T21:54:48.810Z,20.03
2019-06-07T21:57:17.343Z,15.50
2019-06-07T21:59:45.899Z,17.17
2019-06-07T22:02:14.736Z,16.80
2019-06-07T22:04:43.319Z,19.83
2019-06-07T22:07:11.842Z,18.83
2019-06-07T22:09:40.378Z,15.90
2019-06-07T22:12:10.132Z,14.63
2019-06-07T22:14:38.185Z,21.57
2019-06-07T22:17:08.163Z,16.10
2019-06-07T22:19:35.607Z,15.07
2019-06-07T22:22:05.217Z,19.87
2019-06-07T22:24:32.818Z,17.10
2019-06-07T22:27:01.336Z,18.17
2019-06-07T22:29:29.865Z,17.97
2019-06-07T22:31:58.401Z,25.70
2019-06-07T22:34:26.930Z,21.73
2019-06-07T22:36:55.450Z,16.10
2019-06-07T22:39:24.005Z,22.03
2019-06-07T22:41:52.575Z,18.73
2019-06-07T22:44:21.085Z,17.30
2019-06-07T22:46:49.771Z,16.17
2019-06-07T22:49:19.523Z,17.17
2019-06-07T22:51:46.855Z,18.83
2019-06-07T22:54:16.097Z,17.73
2019-06-07T22:56:48.344Z,20.10
2019-06-07T22:59:18.831Z,18.17
2019-06-07T23:01:45.520Z,19.60
2019-06-07T23:04:14.576Z,15.13
2019-06-07T23:06:42.584Z,17.90
2019-06-07T23:09:11.116Z,18.13
2019-06-07T23:11:39.642Z,22.77
2019-06-07T23:14:09.212Z,16.87
2019-06-07T23:16:54.011Z,19.37
2019-06-07T23:19:05.742Z,21.20
2019-06-07T23:21:34.270Z,20.00
2019-06-07T23:24:02.823Z,18.70
2019-06-07T23:26:31.391Z,18.00
2019-06-07T23:28:59.975Z,17.60
2019-06-07T23:31:28.517Z,21.77
2019-06-07T23:33:57.106Z,21.10
2019-06-07T23:36:25.663Z,17.63
2019-06-07T23:38:54.371Z,20.80
2019-06-07T23:41:22.877Z,19.70
2019-06-07T23:43:51.506Z,16.03
2019-06-07T23:46:20.024Z,20.23
2019-06-07T23:48:48.554Z,19.90
2019-06-07T23:51:17.700Z,19.47
2019-06-07T23:53:45.710Z,16.47
2019-06-07T23:56:14.255Z,20.73
2019-06-07T23:58:42.764Z,18.73
